createdAt,value
2022-10-11T00:00:58.424Z,84.15
2022-10-11T00:01:58.349Z,85.42
2022-10-11T00:02:58.355Z,86.18
2022-10-11T00:03:58.330Z,86.93
2022-10-11T00:04:58.361Z,87.04
2022-10-11T00:05:58.305Z,88.27
2022-10-11T00:06:58.290Z,88.06
2022-10-11T00:07:58.277Z,87.41
2022-10-11T00:08:58.285Z,86.38
2022-10-11T00:09:58.272Z,86.79
2022-10-11T00:10:58.248Z,86.48
2022-10-11T00:11:58.243Z,85.56
2022-10-11T00:12:58.234Z,85.60
2022-10-11T00:13:58.231Z,86.63
2022-10-11T00:14:58.242Z,88.06
2022-10-11T00:15:58.231Z,87.85
2022-10-11T00:16:58.200Z,87.04
2022-10-11T00:18:02.110Z,86.93
2022-10-11T00:18:59.194Z,86.63
2022-10-11T00:19:58.176Z,87.14
2022-10-11T00:20:58.146Z,86.83
2022-10-11T00:21:58.139Z,86.11
2022-10-11T00:22:58.137Z,86.73
2022-10-11T00:23:58.123Z,85.60
2022-10-11T00:24:58.126Z,85.91
2022-10-11T00:25:58.100Z,85.19
2022-10-11T00:26:58.093Z,84.78
2022-10-11T00:27:58.083Z,84.47
2022-10-11T00:28:58.072Z,85.91
2022-10-11T00:29:58.074Z,85.03
2022-10-11T00:30:58.056Z,85.23
2022-10-11T00:31:58.045Z,85.64
2022-10-11T00:32:58.046Z,85.95
2022-10-11T00:33:58.030Z,86.05
2022-10-11T00:34:58.024Z,85.64
2022-10-11T00:35:58.096Z,85.39
2022-10-11T00:36:58.996Z,85.64
2022-10-11T00:37:57.986Z,86.25
2022-10-11T00:38:57.977Z,86.36
2022-10-11T00:39:57.993Z,85.44
2022-10-11T00:40:57.956Z,85.33
2022-10-11T00:41:57.947Z,85.68
2022-10-11T00:42:57.934Z,88.64
2022-10-11T00:43:57.922Z,89.29
2022-10-11T00:44:57.921Z,89.04
2022-10-11T00:45:58.014Z,89.25
2022-10-11T00:46:57.894Z,88.64
2022-10-11T00:47:57.885Z,88.74
2022-10-11T00:48:57.875Z,89.04
2022-10-11T00:49:57.876Z,89.21
2022-10-11T00:50:57.854Z,87.98
2022-10-11T00:51:57.842Z,87.67
2022-10-11T00:52:57.827Z,87.16
2022-10-11T00:53:57.817Z,87.26
2022-10-11T00:54:57.813Z,86.85
2022-10-11T00:55:57.841Z,86.54
2022-10-11T00:56:57.783Z,86.30
2022-10-11T00:57:57.774Z,86.44
2022-10-11T00:58:57.761Z,87.37
2022-10-11T00:59:57.768Z,86.44
2022-10-11T01:00:57.923Z,86.44
2022-10-11T01:01:57.733Z,86.44
2022-10-11T01:02:57.723Z,86.33
2022-10-11T01:03:57.709Z,87.16
2022-10-11T01:05:25.052Z,87.16
2022-10-11T01:05:59.690Z,86.79
2022-10-11T01:06:57.683Z,86.95
2022-10-11T01:07:57.671Z,86.65
2022-10-11T01:08:57.661Z,86.54
2022-10-11T01:09:57.659Z,86.54
2022-10-11T01:10:57.724Z,86.68
2022-10-11T01:11:57.627Z,86.85
2022-10-11T01:12:57.618Z,86.68
2022-10-11T01:13:57.609Z,86.79
2022-10-11T01:14:57.609Z,86.58
2022-10-11T01:15:57.583Z,87.10
2022-10-11T01:16:57.596Z,86.13
2022-10-11T01:17:57.565Z,86.24
2022-10-11T01:18:57.557Z,86.48
2022-10-11T01:19:57.553Z,86.68
2022-10-11T01:20:57.540Z,86.54
2022-10-11T01:21:57.528Z,86.33
2022-10-11T01:22:57.519Z,86.48
2022-10-11T01:23:57.524Z,86.27
2022-10-11T01:24:57.509Z,86.79
2022-10-11T01:25:57.489Z,86.65
2022-10-11T01:26:57.485Z,86.79
2022-10-11T01:27:57.454Z,86.58
2022-10-11T01:28:58.501Z,86.79
2022-10-11T01:29:57.456Z,86.99
2022-10-11T01:30:57.467Z,86.48
2022-10-11T01:31:57.431Z,86.48
2022-10-11T01:32:57.419Z,86.79
2022-10-11T01:33:57.404Z,86.72
2022-10-11T01:34:57.398Z,87.55
2022-10-11T01:35:58.383Z,87.34
2022-10-11T01:36:57.383Z,87.24
2022-10-11T01:37:57.362Z,87.34
2022-10-11T01:38:57.353Z,86.79
2022-10-11T01:39:57.354Z,86.58
2022-10-11T01:40:57.380Z,87.24
2022-10-11T01:41:57.324Z,87.30
2022-10-11T01:42:57.315Z,87.13
2022-10-11T01:43:57.310Z,87.51
2022-10-11T01:44:59.566Z,87.10
2022-10-11T01:45:57.284Z,87.75
2022-10-11T01:46:57.276Z,87.61
2022-10-11T01:47:57.266Z,87.30
2022-10-11T01:48:57.258Z,87.20
2022-10-11T01:49:57.275Z,87.55
2022-10-11T01:50:57.266Z,87.13
2022-10-11T01:51:57.223Z,87.34
2022-10-11T01:52:57.217Z,87.30
2022-10-11T01:53:57.204Z,87.55
2022-10-11T01:55:09.176Z,86.62
2022-10-11T01:55:59.202Z,87.04
2022-10-11T01:56:57.174Z,87.24
2022-10-11T01:57:57.158Z,87.30
2022-10-11T01:58:57.153Z,87.61
2022-10-11T01:59:57.184Z,87.30
2022-10-11T02:00:57.131Z,86.99
2022-10-11T02:01:57.181Z,87.20
2022-10-11T02:02:57.109Z,87.20
2022-10-11T02:03:57.104Z,87.45
2022-10-11T02:04:57.094Z,87.20
2022-10-11T02:05:57.094Z,87.40
2022-10-11T02:06:57.081Z,87.30
2022-10-11T02:07:57.065Z,86.83
2022-10-11T02:08:57.063Z,86.72
2022-10-11T02:09:57.058Z,86.62
2022-10-11T02:10:57.036Z,86.99
2022-10-11T02:11:58.020Z,87.45
2022-10-11T02:12:57.012Z,87.20
2022-10-11T02:13:57.006Z,87.30
2022-10-11T02:14:56.996Z,87.34
2022-10-11T02:15:56.996Z,87.55
2022-10-11T02:16:56.973Z,88.27
2022-10-11T02:17:56.966Z,88.27
2022-10-11T02:18:56.952Z,87.65
2022-10-11T02:19:56.944Z,87.55
2022-10-11T02:20:56.949Z,87.24
2022-10-11T02:21:56.924Z,87.65
2022-10-11T02:23:28.824Z,87.45
2022-10-11T02:23:56.938Z,87.04
2022-10-11T02:24:56.891Z,86.93
2022-10-11T02:25:56.896Z,86.62
2022-10-11T02:26:56.875Z,87.07
2022-10-11T02:27:56.871Z,87.34
2022-10-11T02:28:56.902Z,87.38
2022-10-11T02:29:56.848Z,87.55
2022-10-11T02:30:56.847Z,87.28
2022-10-11T02:31:56.820Z,87.90
2022-10-11T02:32:56.815Z,87.69
2022-10-11T02:33:56.804Z,87.59
2022-10-11T02:34:56.791Z,88.00
2022-10-11T02:35:56.791Z,88.31
2022-10-11T02:36:56.785Z,88.51
2022-10-11T02:37:56.764Z,88.82
2022-10-11T02:38:56.769Z,88.72
2022-10-11T02:39:56.745Z,88.31
2022-10-11T02:40:56.744Z,88.10
2022-10-11T02:41:56.729Z,88.62
2022-10-11T02:42:56.725Z,88.66
2022-10-11T02:43:56.705Z,89.07
2022-10-11T02:44:56.688Z,88.96
2022-10-11T02:45:56.709Z,88.86
2022-10-11T02:46:56.672Z,88.76
2022-10-11T02:47:56.704Z,88.96
2022-10-11T02:48:56.646Z,89.07
2022-10-11T02:49:56.636Z,88.66
2022-10-11T02:50:56.639Z,88.45
2022-10-11T02:51:56.619Z,88.66
2022-10-11T02:52:56.608Z,89.17
2022-10-11T02:53:56.621Z,88.66
2022-10-11T02:54:56.595Z,89.58
2022-10-11T02:55:56.591Z,89.28
2022-10-11T02:56:56.575Z,89.73
2022-10-11T02:57:56.592Z,89.42
2022-10-11T02:58:56.549Z,89.73
2022-10-11T02:59:56.543Z,89.69
2022-10-11T03:00:56.541Z,89.58
2022-10-11T03:01:56.568Z,89.22
2022-10-11T03:02:56.509Z,89.42
2022-10-11T03:03:56.503Z,89.48
2022-10-11T03:04:56.492Z,89.58
2022-10-11T03:05:56.508Z,89.28
2022-10-11T03:06:57.469Z,89.58
2022-10-11T03:07:56.468Z,89.48
2022-10-11T03:08:56.461Z,89.58
2022-10-11T03:09:56.445Z,89.17
2022-10-11T03:10:59.096Z,88.86
2022-10-11T03:11:56.415Z,89.07
2022-10-11T03:12:56.414Z,88.76
2022-10-11T03:13:56.409Z,89.38
2022-10-11T03:14:56.391Z,88.66
2022-10-11T03:16:03.389Z,88.56
2022-10-11T03:17:17.257Z,88.86
2022-10-11T03:17:58.365Z,88.96
2022-10-11T03:18:56.360Z,89.07
2022-10-11T03:19:56.344Z,88.76
2022-10-11T03:20:56.345Z,89.11
2022-10-11T03:21:56.324Z,88.70
2022-10-11T03:22:56.312Z,88.90
2022-10-11T03:23:56.314Z,89.38
2022-10-11T03:24:59.742Z,89.42
2022-10-11T03:25:58.295Z,89.94
2022-10-11T03:26:56.279Z,89.94
2022-10-11T03:27:56.268Z,89.73
2022-10-11T03:28:56.303Z,90.00
2022-10-11T03:29:56.248Z,90.03
2022-10-11T03:30:56.254Z,89.52
2022-10-11T03:31:56.227Z,89.07
2022-10-11T03:32:56.224Z,89.62
2022-10-11T03:33:56.206Z,89.58
2022-10-11T03:34:56.196Z,89.73
2022-10-11T03:35:56.207Z,89.22
2022-10-11T03:36:56.181Z,89.52
2022-10-11T03:37:56.175Z,89.79
2022-10-11T03:38:56.160Z,89.62
2022-10-11T03:39:56.153Z,90.66
2022-10-11T03:40:56.152Z,90.14
2022-10-11T03:41:56.151Z,90.34
2022-10-11T03:42:56.125Z,90.45
2022-10-11T03:43:56.114Z,90.75
2022-10-11T03:44:56.106Z,90.75
2022-10-11T03:45:56.104Z,90.75
2022-10-11T03:46:56.085Z,90.66
2022-10-11T03:47:56.076Z,90.66
2022-10-11T03:48:56.072Z,90.66
2022-10-11T03:49:56.054Z,90.75
2022-10-11T03:50:56.059Z,91.06
2022-10-11T03:51:56.038Z,91.17
2022-10-11T03:52:56.027Z,90.75
2022-10-11T03:53:56.033Z,90.75
2022-10-11T03:54:56.010Z,90.86
2022-10-11T03:55:56.029Z,90.96
2022-10-11T03:56:55.994Z,90.86
2022-10-11T03:57:55.985Z,91.06
2022-10-11T03:58:55.974Z,91.17
2022-10-11T03:59:55.958Z,90.86
2022-10-11T04:00:57.011Z,91.17
2022-10-11T04:01:56.038Z,91.27
2022-10-11T04:02:55.936Z,90.86
2022-10-11T04:03:55.927Z,91.27
2022-10-11T04:04:55.921Z,91.06
2022-10-11T04:05:55.920Z,90.96
2022-10-11T04:06:55.898Z,90.45
2022-10-11T04:07:55.915Z,90.86
2022-10-11T04:08:55.882Z,90.96
2022-10-11T04:09:55.887Z,90.96
2022-10-11T04:10:55.871Z,91.00
2022-10-11T04:11:55.853Z,91.06
2022-10-11T04:12:55.841Z,91.06
2022-10-11T04:13:55.839Z,91.17
2022-10-11T04:14:55.820Z,91.17
2022-10-11T04:15:55.823Z,90.75
2022-10-11T04:16:59.639Z,91.06
2022-10-11T04:17:56.793Z,90.75
2022-10-11T04:18:55.812Z,90.75
2022-10-11T04:19:55.776Z,90.80
2022-10-11T04:20:55.777Z,90.75
2022-10-11T04:21:55.758Z,90.75
2022-10-11T04:22:55.745Z,90.96
2022-10-11T04:23:55.739Z,91.00
2022-10-11T04:24:55.728Z,91.17
2022-10-11T04:25:55.765Z,91.11
2022-10-11T04:26:55.711Z,90.96
2022-10-11T04:27:55.699Z,91.27
2022-10-11T04:28:55.740Z,91.17
2022-10-11T04:29:55.689Z,90.34
2022-10-11T04:30:55.683Z,90.34
2022-10-11T04:31:55.662Z,90.55
2022-10-11T04:32:55.659Z,90.59
2022-10-11T04:33:55.644Z,90.96
2022-10-11T04:34:55.635Z,91.11
2022-10-11T04:35:55.637Z,91.11
2022-10-11T04:36:55.614Z,90.45
2022-10-11T04:37:55.611Z,90.75
2022-10-11T04:38:55.598Z,91.21
2022-10-11T04:39:55.586Z,91.17
2022-10-11T04:40:55.595Z,91.47
2022-10-11T04:41:55.566Z,91.93
2022-10-11T04:42:55.555Z,91.83
2022-10-11T04:43:55.551Z,92.03
2022-10-11T04:44:55.539Z,91.72
2022-10-11T04:45:55.683Z,92.20
2022-10-11T04:46:56.518Z,91.38
2022-10-11T04:47:55.512Z,92.03
2022-10-11T04:48:55.541Z,91.93
2022-10-11T04:49:55.488Z,91.52
2022-10-11T04:50:56.496Z,92.20
2022-10-11T04:51:55.475Z,91.52
2022-10-11T04:52:55.463Z,91.42
2022-10-11T04:53:55.449Z,91.72
2022-10-11T04:54:55.445Z,91.11
2022-10-11T04:55:55.449Z,91.31
2022-10-11T04:56:55.453Z,91.11
2022-10-11T04:57:55.416Z,91.31
2022-10-11T04:58:55.410Z,91.11
2022-10-11T04:59:55.403Z,91.42
2022-10-11T05:00:55.399Z,91.31
2022-10-11T05:01:55.436Z,93.16
2022-10-11T05:02:56.370Z,93.01
2022-10-11T05:03:55.375Z,95.89
2022-10-11T05:04:55.351Z,94.96
2022-10-11T05:05:55.358Z,94.65
2022-10-11T05:06:55.336Z,94.76
2022-10-11T05:07:55.324Z,94.24
2022-10-11T05:08:55.331Z,93.93
2022-10-11T05:09:55.298Z,94.34
2022-10-11T05:10:55.300Z,94.40
2022-10-11T05:11:55.272Z,94.20
2022-10-11T05:12:55.268Z,94.20
2022-10-11T05:13:55.255Z,94.09
2022-10-11T05:14:55.247Z,94.45
2022-10-11T05:15:55.247Z,96.20
2022-10-11T05:16:55.232Z,95.99
2022-10-11T05:17:55.220Z,96.20
2022-10-11T05:18:55.208Z,95.89
2022-10-11T05:19:55.205Z,94.81
2022-10-11T05:20:55.201Z,95.33
2022-10-11T05:21:55.184Z,95.33
2022-10-11T05:22:55.177Z,94.81
2022-10-11T05:23:55.159Z,94.40
2022-10-11T05:24:55.154Z,94.71
2022-10-11T05:25:55.164Z,94.20
2022-10-11T05:26:56.959Z,94.76
2022-10-11T05:27:55.127Z,95.83
2022-10-11T05:28:55.259Z,95.58
2022-10-11T05:29:55.134Z,95.10
2022-10-11T05:30:55.157Z,95.42
2022-10-11T05:31:55.097Z,95.73
2022-10-11T05:32:55.085Z,95.83
2022-10-11T05:33:55.071Z,96.86
2022-10-11T05:34:55.066Z,96.91
2022-10-11T05:35:55.073Z,97.06
2022-10-11T05:36:55.045Z,97.06
2022-10-11T05:37:56.065Z,97.06
2022-10-11T05:38:55.022Z,97.06
2022-10-11T05:39:55.016Z,96.03
2022-10-11T05:40:55.017Z,96.24
2022-10-11T05:41:55.069Z,96.45
2022-10-11T05:42:54.985Z,95.68
2022-10-11T05:43:54.980Z,95.06
2022-10-11T05:44:54.968Z,94.55
2022-10-11T05:45:54.969Z,94.45
2022-10-11T05:46:54.949Z,94.55
2022-10-11T05:47:54.944Z,94.76
2022-10-11T05:48:54.928Z,94.49
2022-10-11T05:49:54.924Z,95.21
2022-10-11T05:50:54.926Z,95.42
2022-10-11T05:51:54.925Z,95.83
2022-10-11T05:52:55.943Z,95.62
2022-10-11T05:53:54.918Z,95.73
2022-10-11T05:54:54.873Z,95.52
2022-10-11T05:55:54.898Z,96.75
2022-10-11T05:56:54.842Z,95.73
2022-10-11T05:57:55.846Z,95.21
2022-10-11T05:58:58.713Z,95.48
2022-10-11T05:59:55.823Z,94.96
2022-10-11T06:00:54.893Z,94.85
2022-10-11T06:01:54.927Z,94.90
2022-10-11T06:02:54.793Z,94.84
2022-10-11T06:03:54.787Z,96.08
2022-10-11T06:04:54.776Z,96.18
2022-10-11T06:05:57.214Z,95.98
2022-10-11T06:06:55.758Z,96.39
2022-10-11T06:07:54.748Z,96.39
2022-10-11T06:08:54.738Z,97.05
2022-10-11T06:09:54.733Z,97.47
2022-10-11T06:10:54.738Z,98.96
2022-10-11T06:11:54.703Z,99.37
2022-10-11T06:12:54.708Z,99.16
2022-10-11T06:13:54.693Z,98.80
2022-10-11T06:14:54.678Z,98.44
2022-10-11T06:15:54.696Z,98.96
2022-10-11T06:16:54.677Z,98.44
2022-10-11T06:17:54.658Z,98.79
2022-10-11T06:18:54.664Z,99.78
2022-10-11T06:19:54.640Z,99.57
2022-10-11T06:20:54.662Z,99.26
2022-10-11T06:21:54.619Z,99.21
2022-10-11T06:22:54.617Z,98.96
2022-10-11T06:23:59.853Z,99.16
2022-10-11T06:24:56.624Z,98.91
2022-10-11T06:25:54.600Z,99.07
2022-10-11T06:26:54.578Z,98.86
2022-10-11T06:27:54.563Z,98.86
2022-10-11T06:28:54.623Z,98.66
2022-10-11T06:29:54.547Z,98.10
2022-10-11T06:30:54.547Z,97.68
2022-10-11T06:31:55.542Z,96.96
2022-10-11T06:32:54.526Z,97.38
2022-10-11T06:33:54.514Z,97.06
2022-10-11T06:34:54.506Z,96.55
2022-10-11T06:35:54.514Z,97.21
2022-10-11T06:36:54.501Z,97.31
2022-10-11T06:37:54.492Z,97.94
2022-10-11T06:38:54.470Z,98.55
2022-10-11T06:39:54.466Z,98.91
2022-10-11T06:40:54.461Z,99.22
2022-10-11T06:41:54.446Z,99.32
2022-10-11T06:42:54.425Z,99.58
2022-10-11T06:43:55.425Z,99.99
2022-10-11T06:44:54.417Z,99.99
2022-10-11T06:45:54.458Z,99.99
2022-10-11T06:46:54.408Z,98.55
2022-10-11T06:47:54.390Z,98.41
2022-10-11T06:48:54.377Z,99.17
2022-10-11T06:49:54.369Z,99.13
2022-10-11T06:50:59.938Z,98.30
2022-10-11T06:51:56.363Z,99.02
2022-10-11T06:52:54.342Z,98.57
2022-10-11T06:53:54.353Z,98.77
2022-10-11T06:54:54.335Z,99.04
2022-10-11T06:55:54.318Z,98.79
2022-10-11T06:56:54.315Z,98.79
2022-10-11T06:57:54.294Z,98.16
2022-10-11T06:58:54.286Z,99.05
2022-10-11T06:59:54.274Z,98.27
2022-10-11T07:00:54.300Z,97.03
2022-10-11T07:01:54.269Z,96.21
2022-10-11T07:02:54.254Z,96.11
2022-10-11T07:03:54.255Z,96.00
2022-10-11T07:04:54.233Z,96.17
2022-10-11T07:05:55.496Z,95.96
2022-10-11T07:06:54.222Z,96.11
2022-10-11T07:07:54.202Z,96.15
2022-10-11T07:08:54.241Z,97.28
2022-10-11T07:09:54.183Z,97.95
2022-10-11T07:10:54.169Z,98.88
2022-10-11T07:11:54.171Z,98.93
2022-10-11T07:12:54.152Z,97.60
2022-10-11T07:13:54.146Z,97.33
2022-10-11T07:14:54.135Z,97.28
2022-10-11T07:15:54.128Z,97.39
2022-10-11T07:16:54.126Z,97.23
2022-10-11T07:17:54.107Z,97.95
2022-10-11T07:18:59.628Z,98.46
2022-10-11T07:19:56.087Z,98.50
2022-10-11T07:20:54.080Z,98.71
2022-10-11T07:21:54.085Z,99.23
2022-10-11T07:22:54.070Z,98.97
2022-10-11T07:23:54.058Z,99.08
2022-10-11T07:24:54.070Z,98.72
2022-10-11T07:25:54.077Z,98.88
2022-10-11T07:26:54.044Z,98.79
2022-10-11T07:27:54.039Z,98.12
2022-10-11T07:28:54.096Z,96.94
2022-10-11T07:29:54.007Z,95.45
2022-10-11T07:30:53.994Z,94.77
2022-10-11T07:31:53.997Z,95.39
2022-10-11T07:32:53.975Z,95.55
2022-10-11T07:33:53.965Z,95.75
2022-10-11T07:34:53.956Z,96.31
2022-10-11T07:35:53.963Z,96.47
2022-10-11T07:36:53.945Z,96.78
2022-10-11T07:37:53.930Z,96.21
2022-10-11T07:38:53.914Z,96.17
2022-10-11T07:39:53.904Z,96.17
2022-10-11T07:40:53.902Z,95.86
2022-10-11T07:41:53.902Z,96.17
2022-10-11T07:42:53.909Z,95.90
2022-10-11T07:43:53.906Z,95.86
2022-10-11T07:44:53.854Z,96.00
2022-10-11T07:45:53.879Z,96.27
2022-10-11T07:46:53.947Z,96.21
2022-10-11T07:47:53.976Z,96.21
2022-10-11T07:48:53.817Z,97.03
2022-10-11T07:49:53.812Z,96.68
2022-10-11T07:50:53.799Z,95.96
2022-10-11T07:51:53.800Z,95.40
2022-10-11T07:52:53.817Z,94.54
2022-10-11T07:53:53.771Z,95.15
2022-10-11T07:54:53.758Z,95.36
2022-10-11T07:55:53.794Z,95.01
2022-10-11T07:56:53.749Z,94.65
2022-10-11T07:57:53.733Z,94.10
2022-10-11T07:58:53.737Z,94.15
2022-10-11T07:59:53.729Z,93.80
2022-10-11T08:00:53.732Z,92.72
2022-10-11T08:01:53.743Z,92.27
2022-10-11T08:02:53.699Z,91.65
2022-10-11T08:03:53.680Z,90.83
2022-10-11T08:04:53.666Z,90.62
2022-10-11T08:05:53.651Z,90.73
2022-10-11T08:06:53.736Z,90.62
2022-10-11T08:07:53.640Z,90.17
2022-10-11T08:08:53.665Z,89.29
2022-10-11T08:09:53.671Z,89.50
2022-10-11T08:10:53.626Z,90.11
2022-10-11T08:11:53.611Z,89.19
2022-10-11T08:12:53.596Z,89.19
2022-10-11T08:13:53.581Z,89.50
2022-10-11T08:14:53.573Z,89.56
2022-10-11T08:15:53.581Z,88.57
2022-10-11T08:16:53.562Z,89.81
2022-10-11T08:17:53.540Z,90.17
2022-10-11T08:18:53.533Z,89.83
2022-10-11T08:19:53.521Z,88.70
2022-10-11T08:20:53.537Z,87.73
2022-10-11T08:21:53.518Z,86.99
2022-10-11T08:22:53.492Z,87.04
2022-10-11T08:23:53.486Z,88.47
2022-10-11T08:24:53.514Z,89.25
2022-10-11T08:25:53.524Z,90.22
2022-10-11T08:26:53.465Z,90.17
2022-10-11T08:27:53.442Z,89.09
2022-10-11T08:28:53.477Z,88.98
2022-10-11T08:29:53.431Z,88.98
2022-10-11T08:30:53.414Z,88.78
2022-10-11T08:31:53.413Z,90.32
2022-10-11T08:32:53.411Z,91.03
2022-10-11T08:33:53.379Z,90.07
2022-10-11T08:34:53.374Z,89.21
2022-10-11T08:35:53.392Z,88.14
2022-10-11T08:36:53.377Z,87.63
2022-10-11T08:37:53.420Z,88.04
2022-10-11T08:38:53.345Z,88.29
2022-10-11T08:39:53.327Z,88.90
2022-10-11T08:40:53.308Z,88.94
2022-10-11T08:41:53.322Z,89.83
2022-10-11T08:42:53.295Z,90.19
2022-10-11T08:43:53.286Z,87.90
2022-10-11T08:45:09.943Z,86.81
2022-10-11T08:45:55.316Z,86.30
2022-10-11T08:46:55.792Z,88.04
2022-10-11T08:47:55.246Z,88.06
2022-10-11T08:48:53.234Z,87.10
2022-10-11T08:49:53.216Z,85.83
2022-10-11T08:50:53.219Z,82.93
2022-10-11T08:51:53.205Z,83.04
2022-10-11T08:52:53.183Z,83.69
2022-10-11T08:53:53.170Z,84.24
2022-10-11T08:54:53.166Z,84.38
2022-10-11T08:55:53.175Z,85.57
2022-10-11T08:56:53.154Z,84.65
2022-10-11T08:57:53.134Z,84.30
2022-10-11T08:58:53.159Z,82.36
2022-10-11T08:59:53.119Z,81.81
2022-10-11T09:00:53.103Z,81.37
2022-10-11T09:01:53.187Z,81.84
2022-10-11T09:03:08.126Z,81.12
2022-10-11T09:03:55.091Z,80.47
2022-10-11T09:04:53.092Z,81.09
2022-10-11T09:05:53.089Z,79.66
2022-10-11T09:06:53.067Z,79.83
2022-10-11T09:07:53.034Z,81.10
2022-10-11T09:08:53.023Z,81.88
2022-10-11T09:09:53.012Z,83.73
2022-10-11T09:10:53.000Z,83.73
2022-10-11T09:11:53.006Z,84.69
2022-10-11T09:12:52.983Z,84.89
2022-10-11T09:13:53.008Z,84.38
2022-10-11T09:14:52.967Z,84.99
2022-10-11T09:15:52.952Z,84.28
2022-10-11T09:16:52.954Z,84.55
2022-10-11T09:17:52.932Z,83.89
2022-10-11T09:18:52.966Z,82.97
2022-10-11T09:19:52.913Z,83.38
2022-10-11T09:20:52.912Z,82.67
2022-10-11T09:21:52.904Z,81.24
2022-10-11T09:22:52.875Z,82.40
2022-10-11T09:23:52.867Z,82.70
2022-10-11T09:24:52.860Z,83.32
2022-10-11T09:25:52.847Z,83.93
2022-10-11T09:26:52.922Z,82.83
2022-10-11T09:28:08.325Z,81.81
2022-10-11T09:28:58.685Z,83.40
2022-10-11T09:29:54.804Z,81.40
2022-10-11T09:30:52.800Z,81.10
2022-10-11T09:31:52.813Z,83.18
2022-10-11T09:32:52.775Z,82.87
2022-10-11T09:33:52.766Z,82.87
2022-10-11T09:34:52.754Z,82.67
2022-10-11T09:35:52.744Z,82.67
2022-10-11T09:36:52.744Z,81.95
2022-10-11T09:37:52.724Z,82.63
2022-10-11T09:38:52.713Z,82.83
2022-10-11T09:39:52.717Z,82.46
2022-10-11T09:40:52.698Z,82.53
2022-10-11T09:41:52.697Z,81.20
2022-10-11T09:42:52.705Z,82.53
2022-10-11T09:43:52.665Z,83.14
2022-10-11T09:44:52.810Z,82.97
2022-10-11T09:45:52.650Z,82.36
2022-10-11T09:46:52.657Z,83.32
2022-10-11T09:47:52.625Z,83.69
2022-10-11T09:48:52.619Z,82.36
2022-10-11T09:49:52.602Z,82.15
2022-10-11T09:50:52.597Z,83.89
2022-10-11T09:51:52.595Z,81.34
2022-10-11T09:52:52.578Z,81.65
2022-10-11T09:53:52.570Z,81.74
2022-10-11T09:54:52.567Z,81.10
2022-10-11T09:55:52.549Z,81.37
2022-10-11T09:56:52.546Z,80.65
2022-10-11T09:57:52.528Z,80.44
2022-10-11T09:58:52.513Z,80.14
2022-10-11T09:59:52.509Z,80.55
2022-10-11T10:00:52.496Z,80.71
2022-10-11T10:01:52.537Z,80.10
2022-10-11T10:02:52.492Z,80.16
2022-10-11T10:03:52.467Z,79.14
2022-10-11T10:04:52.452Z,78.74
2022-10-11T10:05:52.444Z,79.45
2022-10-11T10:06:52.505Z,78.53
2022-10-11T10:07:52.427Z,77.21
2022-10-11T10:08:52.422Z,77.85
2022-10-11T10:09:52.400Z,76.18
2022-10-11T10:10:57.054Z,75.67
2022-10-11T10:11:54.394Z,75.64
2022-10-11T10:12:52.416Z,75.09
2022-10-11T10:13:52.367Z,74.45
2022-10-11T10:14:52.349Z,74.08
2022-10-11T10:15:52.347Z,74.52
2022-10-11T10:16:52.357Z,74.82
2022-10-11T10:17:52.331Z,75.30
2022-10-11T10:18:52.313Z,74.25
2022-10-11T10:19:52.306Z,75.67
2022-10-11T10:20:52.289Z,75.13
2022-10-11T10:21:52.287Z,75.60
2022-10-11T10:22:52.268Z,74.79
2022-10-11T10:23:52.267Z,75.20
2022-10-11T10:24:52.255Z,75.13
2022-10-11T10:25:52.243Z,76.39
2022-10-11T10:26:52.245Z,77.64
2022-10-11T10:27:52.256Z,77.21
2022-10-11T10:28:52.302Z,78.12
2022-10-11T10:29:52.224Z,80.37
2022-10-11T10:30:52.191Z,79.04
2022-10-11T10:32:21.208Z,80.37
2022-10-11T10:32:54.184Z,78.02
2022-10-11T10:33:52.180Z,79.36
2022-10-11T10:34:52.154Z,80.89
2022-10-11T10:35:52.143Z,80.48
2022-10-11T10:36:52.149Z,81.85
2022-10-11T10:37:52.182Z,82.63
2022-10-11T10:38:52.496Z,82.22
2022-10-11T10:39:53.104Z,80.55
2022-10-11T10:40:52.094Z,81.12
2022-10-11T10:41:52.088Z,81.53
2022-10-11T10:42:52.100Z,80.78
2022-10-11T10:43:52.072Z,79.59
2022-10-11T10:44:52.053Z,79.66
2022-10-11T10:45:52.040Z,78.43
2022-10-11T10:46:52.048Z,77.68
2022-10-11T10:47:52.028Z,77.37
2022-10-11T10:49:54.909Z,77.37
2022-10-11T10:50:52.999Z,75.51
2022-10-11T10:51:52.003Z,75.88
2022-10-11T10:52:51.962Z,74.55
2022-10-11T10:53:52.962Z,77.20
2022-10-11T10:54:51.956Z,74.86
2022-10-11T10:55:51.941Z,75.37
2022-10-11T10:56:51.944Z,73.94
2022-10-11T10:57:51.938Z,74.45
2022-10-11T10:58:51.906Z,75.16
2022-10-11T10:59:51.898Z,76.08
2022-10-11T11:00:51.887Z,76.15
2022-10-11T11:01:51.906Z,75.27
2022-10-11T11:02:52.029Z,74.69
2022-10-11T11:03:51.850Z,75.74
2022-10-11T11:04:51.877Z,77.03
2022-10-11T11:05:52.839Z,75.30
2022-10-11T11:06:51.835Z,74.93
2022-10-11T11:07:51.812Z,78.09
2022-10-11T11:08:51.831Z,78.36
2022-10-11T11:09:51.791Z,76.90
2022-10-11T11:10:51.784Z,74.76
2022-10-11T11:11:51.802Z,75.10
2022-10-11T11:12:51.766Z,75.30
2022-10-11T11:13:51.750Z,75.92
2022-10-11T11:14:51.757Z,75.71
2022-10-11T11:15:51.750Z,74.83
2022-10-11T11:16:51.740Z,75.88
2022-10-11T11:17:51.816Z,75.68
2022-10-11T11:18:51.698Z,75.57
2022-10-11T11:19:51.693Z,75.34
2022-10-11T11:20:51.697Z,76.80
2022-10-11T11:21:51.682Z,78.50
2022-10-11T11:22:51.655Z,77.92
2022-10-11T11:23:51.671Z,75.34
2022-10-11T11:24:51.750Z,75.74
2022-10-11T11:25:51.624Z,74.93
2022-10-11T11:26:51.624Z,75.20
2022-10-11T11:27:51.606Z,75.10
2022-10-11T11:28:51.672Z,74.45
2022-10-11T11:29:55.326Z,75.10
2022-10-11T11:30:52.590Z,75.10
2022-10-11T11:31:51.591Z,74.99
2022-10-11T11:32:51.554Z,75.44
2022-10-11T11:33:51.556Z,75.13
2022-10-11T11:34:51.531Z,75.54
2022-10-11T11:35:51.523Z,75.13
2022-10-11T11:36:51.526Z,75.60
2022-10-11T11:37:57.923Z,74.15
2022-10-11T11:38:53.489Z,74.65
2022-10-11T11:39:51.476Z,73.33
2022-10-11T11:40:51.467Z,74.62
2022-10-11T11:41:51.467Z,74.48
2022-10-11T11:42:51.483Z,73.30
2022-10-11T11:43:51.440Z,73.06
2022-10-11T11:44:51.457Z,73.40
2022-10-11T11:45:51.426Z,72.69
2022-10-11T11:46:51.421Z,72.92
2022-10-11T11:47:52.397Z,73.19
2022-10-11T11:48:51.404Z,73.06
2022-10-11T11:49:51.380Z,72.72
2022-10-11T11:50:51.384Z,72.69
2022-10-11T11:51:51.374Z,71.77
2022-10-11T11:52:51.349Z,70.55
2022-10-11T11:53:51.337Z,70.21
2022-10-11T11:54:51.334Z,71.20
2022-10-11T11:55:51.317Z,69.87
2022-10-11T11:56:51.317Z,70.65
2022-10-11T11:57:51.332Z,70.01
2022-10-11T11:58:51.302Z,68.52
2022-10-11T11:59:51.286Z,69.03
2022-10-11T12:00:51.265Z,70.35
2022-10-11T12:01:51.842Z,69.57
2022-10-11T12:02:52.286Z,69.09
2022-10-11T12:03:51.238Z,70.65
2022-10-11T12:04:51.224Z,72.21
2022-10-11T12:05:51.220Z,72.86
2022-10-11T12:07:14.580Z,72.08
2022-10-11T12:07:53.202Z,71.60
2022-10-11T12:08:51.221Z,72.41
2022-10-11T12:09:51.194Z,70.78
2022-10-11T12:10:51.161Z,71.50
2022-10-11T12:11:52.180Z,70.86
2022-10-11T12:12:51.154Z,69.49
2022-10-11T12:13:51.148Z,68.92
2022-10-11T12:14:51.146Z,68.10
2022-10-11T12:15:51.124Z,69.29
2022-10-11T12:16:51.128Z,69.16
2022-10-11T12:17:51.107Z,67.33
2022-10-11T12:18:51.093Z,66.85
2022-10-11T12:19:51.089Z,67.69
2022-10-11T12:20:51.080Z,67.22
2022-10-11T12:21:51.090Z,68.24
2022-10-11T12:22:51.052Z,69.26
2022-10-11T12:23:51.053Z,68.92
2022-10-11T12:24:51.052Z,69.02
2022-10-11T12:25:51.031Z,68.68
2022-10-11T12:26:51.021Z,68.48
2022-10-11T12:27:51.012Z,69.19
2022-10-11T12:28:51.013Z,69.32
2022-10-11T12:29:50.988Z,69.87
2022-10-11T12:30:50.969Z,71.50
2022-10-11T12:31:50.978Z,74.04
2022-10-11T12:32:50.971Z,72.01
2022-10-11T12:33:50.942Z,73.54
2022-10-11T12:34:50.928Z,73.19
2022-10-11T12:35:50.921Z,72.55
2022-10-11T12:36:50.922Z,70.92
2022-10-11T12:37:50.948Z,70.38
2022-10-11T12:38:50.891Z,70.68
2022-10-11T12:39:50.894Z,70.25
2022-10-11T12:40:50.867Z,70.82
2022-10-11T12:41:50.865Z,69.50
2022-10-11T12:42:50.871Z,69.06
2022-10-11T12:43:50.848Z,69.26
2022-10-11T12:44:50.833Z,67.06
2022-10-11T12:45:50.825Z,67.57
2022-10-11T12:46:50.812Z,68.52
2022-10-11T12:47:50.826Z,68.88
2022-10-11T12:48:50.795Z,70.34
2022-10-11T12:49:50.782Z,68.71
2022-10-11T12:50:50.769Z,69.29
2022-10-11T12:51:50.762Z,68.27
2022-10-11T12:52:50.761Z,69.93
2022-10-11T12:54:14.346Z,69.76